createdAt,value
2018-05-13T00:00:56.459Z,0.00
2018-05-13T00:01:56.485Z,0.00
2018-05-13T00:02:56.535Z,0.00
2018-05-13T00:03:56.610Z,0.00
2018-05-13T00:04:56.633Z,0.00
2018-05-13T00:05:56.691Z,0.00
2018-05-13T00:06:56.737Z,0.00
2018-05-13T00:07:56.796Z,0.00
2018-05-13T00:08:56.862Z,0.00
2018-05-13T00:09:56.912Z,0.00
2018-05-13T00:10:56.940Z,0.00
2018-05-13T00:11:56.990Z,0.00
2018-05-13T00:12:57.043Z,0.00
2018-05-13T00:13:57.089Z,0.00
2018-05-13T00:14:57.167Z,0.00
2018-05-13T00:15:57.191Z,0.00
2018-05-13T00:16:57.242Z,0.00
2018-05-13T00:17:57.294Z,0.00
2018-05-13T00:18:57.344Z,0.00
2018-05-13T00:19:57.422Z,0.00
2018-05-13T00:20:57.444Z,0.00
2018-05-13T00:21:57.494Z,0.00
2018-05-13T00:22:57.545Z,0.00
2018-05-13T00:23:57.597Z,0.00
2018-05-13T00:24:57.675Z,0.00
2018-05-13T00:25:57.725Z,0.00
2018-05-13T00:26:57.747Z,0.00
2018-05-13T00:27:57.796Z,0.00
2018-05-13T00:28:57.848Z,0.00
2018-05-13T00:29:57.897Z,0.00
2018-05-13T00:30:57.972Z,0.00
2018-05-13T00:31:58.003Z,0.00
2018-05-13T00:32:58.051Z,0.00
2018-05-13T00:33:58.100Z,0.00
2018-05-13T00:34:58.158Z,0.00
2018-05-13T00:35:58.223Z,0.00
2018-05-13T00:36:58.254Z,0.00
2018-05-13T00:37:58.302Z,0.00
2018-05-13T00:38:58.351Z,0.00
2018-05-13T00:39:58.405Z,0.00
2018-05-13T00:40:58.477Z,0.00
2018-05-13T00:41:58.529Z,0.00
2018-05-13T00:42:58.555Z,0.00
2018-05-13T00:43:58.606Z,0.00
2018-05-13T00:44:58.653Z,0.00
2018-05-13T00:45:58.728Z,0.00
2018-05-13T00:46:58.754Z,0.00
2018-05-13T00:47:58.808Z,0.00
2018-05-13T00:48:58.857Z,0.00
2018-05-13T00:49:58.912Z,0.00
2018-05-13T00:50:58.988Z,0.00
2018-05-13T00:51:59.007Z,0.00
2018-05-13T00:52:59.056Z,0.00
2018-05-13T00:53:59.108Z,0.00
2018-05-13T00:54:59.157Z,0.00
2018-05-13T00:55:59.247Z,0.00
2018-05-13T00:56:59.256Z,0.00
2018-05-13T00:57:59.311Z,0.00
2018-05-13T00:58:59.362Z,0.00
2018-05-13T00:59:59.412Z,0.00
2018-05-13T01:00:59.492Z,0.00
2018-05-13T01:01:59.519Z,0.00
2018-05-13T01:02:59.561Z,0.00
2018-05-13T01:03:59.614Z,0.00
2018-05-13T01:04:59.664Z,0.00
2018-05-13T01:05:59.736Z,0.00
2018-05-13T01:06:59.761Z,0.00
2018-05-13T01:07:59.844Z,0.00
2018-05-13T01:08:59.860Z,0.00
2018-05-13T01:09:59.913Z,0.00
2018-05-13T01:10:59.961Z,0.00
2018-05-13T01:12:00.018Z,0.00
2018-05-13T01:13:00.094Z,0.00
2018-05-13T01:14:00.114Z,0.00
2018-05-13T01:15:00.164Z,0.00
2018-05-13T01:16:00.214Z,0.00
2018-05-13T01:17:03.182Z,0.00
2018-05-13T01:18:00.349Z,0.00
2018-05-13T01:19:00.363Z,0.00
2018-05-13T01:20:00.414Z,0.00
2018-05-13T01:21:00.467Z,0.00
2018-05-13T01:22:00.522Z,0.00
2018-05-13T01:23:00.592Z,0.00
2018-05-13T01:24:00.614Z,0.00
2018-05-13T01:25:00.671Z,0.00
2018-05-13T01:26:00.713Z,0.00
2018-05-13T01:27:00.766Z,0.00
2018-05-13T01:28:00.839Z,0.00
2018-05-13T01:29:00.902Z,0.00
2018-05-13T01:30:00.914Z,0.00
2018-05-13T01:31:00.964Z,0.00
2018-05-13T01:32:01.013Z,0.00
2018-05-13T01:33:01.064Z,0.00
2018-05-13T01:34:01.141Z,0.00
2018-05-13T01:35:01.188Z,0.00
2018-05-13T01:36:01.215Z,0.00
2018-05-13T01:37:01.263Z,0.00
2018-05-13T01:38:01.325Z,0.00
2018-05-13T01:39:01.364Z,0.00
2018-05-13T01:40:01.439Z,0.00
2018-05-13T01:41:01.465Z,0.00
2018-05-13T01:42:01.517Z,0.00
2018-05-13T01:43:01.564Z,0.00
2018-05-13T01:44:01.616Z,0.00
2018-05-13T01:45:01.689Z,0.00
2018-05-13T01:46:01.716Z,0.00
2018-05-13T01:47:01.766Z,0.00
2018-05-13T01:48:01.814Z,0.00
2018-05-13T01:49:01.875Z,0.00
2018-05-13T01:50:01.942Z,0.00
2018-05-13T01:51:01.964Z,0.00
2018-05-13T01:52:02.016Z,0.00
2018-05-13T01:53:02.063Z,0.00
2018-05-13T01:54:02.113Z,0.00
2018-05-13T01:55:02.192Z,0.00
2018-05-13T01:56:02.237Z,0.00
2018-05-13T01:57:02.264Z,0.00
2018-05-13T01:58:02.342Z,0.00
2018-05-13T01:59:02.362Z,0.00
2018-05-13T02:00:02.413Z,0.00
2018-05-13T02:01:02.505Z,0.00
2018-05-13T02:02:02.513Z,0.00
2018-05-13T02:03:02.567Z,0.00
2018-05-13T02:04:02.612Z,0.00
2018-05-13T02:05:02.662Z,0.00
2018-05-13T02:06:02.741Z,0.00
2018-05-13T02:07:02.763Z,0.00
2018-05-13T02:08:02.814Z,0.00
2018-05-13T02:09:02.861Z,0.00
2018-05-13T02:10:02.912Z,0.00
2018-05-13T02:11:02.988Z,0.00
2018-05-13T02:12:03.051Z,0.00
2018-05-13T02:13:03.062Z,0.00
2018-05-13T02:14:03.111Z,0.00
2018-05-13T02:15:03.163Z,0.00
2018-05-13T02:16:03.211Z,0.00
2018-05-13T02:17:03.283Z,0.00
2018-05-13T02:18:03.311Z,0.00
2018-05-13T02:19:03.359Z,0.00
2018-05-13T02:20:03.408Z,0.00
2018-05-13T02:21:03.460Z,0.00
2018-05-13T02:22:03.532Z,0.00
2018-05-13T02:23:03.558Z,0.00
2018-05-13T02:24:03.607Z,0.00
2018-05-13T02:25:03.658Z,0.00
2018-05-13T02:26:03.706Z,0.00
2018-05-13T02:27:03.789Z,0.00
2018-05-13T02:28:03.807Z,0.00
2018-05-13T02:29:03.859Z,0.00
2018-05-13T02:30:03.909Z,0.00
2018-05-13T02:31:03.961Z,0.00
2018-05-13T02:32:04.029Z,0.00
2018-05-13T02:33:04.090Z,0.00
2018-05-13T02:34:04.109Z,0.00
2018-05-13T02:35:04.158Z,0.00
2018-05-13T02:36:04.207Z,0.00
2018-05-13T02:37:04.256Z,0.00
2018-05-13T02:38:04.330Z,0.00
2018-05-13T02:39:04.389Z,0.00
2018-05-13T02:40:04.403Z,0.00
2018-05-13T02:41:04.465Z,0.00
2018-05-13T02:42:04.504Z,0.00
2018-05-13T02:43:04.582Z,0.00
2018-05-13T02:44:04.628Z,0.00
2018-05-13T02:45:04.651Z,0.00
2018-05-13T02:46:04.703Z,0.00
2018-05-13T02:47:04.751Z,0.00
2018-05-13T02:48:04.840Z,0.00
2018-05-13T02:49:04.850Z,0.00
2018-05-13T02:50:04.902Z,0.00
2018-05-13T02:51:04.952Z,0.00
2018-05-13T02:52:05.003Z,0.00
2018-05-13T02:53:05.073Z,0.00
2018-05-13T02:54:05.098Z,0.00
2018-05-13T02:55:05.149Z,0.00
2018-05-13T02:56:05.198Z,0.00
2018-05-13T02:57:05.259Z,0.00
2018-05-13T02:58:05.911Z,0.00
2018-05-13T02:59:05.348Z,0.00
2018-05-13T03:00:05.399Z,0.00
2018-05-13T03:01:05.479Z,0.00
2018-05-13T03:02:05.496Z,0.00
2018-05-13T03:03:05.551Z,0.00
2018-05-13T03:04:05.594Z,0.00
2018-05-13T03:05:05.667Z,0.00
2018-05-13T03:06:06.411Z,0.00
2018-05-13T03:07:05.743Z,0.00
2018-05-13T03:08:05.792Z,0.00
2018-05-13T03:09:05.841Z,0.00
2018-05-13T03:10:05.927Z,0.00
2018-05-13T03:11:05.941Z,0.00
2018-05-13T03:12:05.989Z,4.00
2018-05-13T03:13:06.041Z,4.00
2018-05-13T03:14:06.088Z,0.00
2018-05-13T03:15:06.165Z,4.00
2018-05-13T03:16:06.189Z,4.00
2018-05-13T03:17:06.237Z,8.00
2018-05-13T03:18:06.289Z,4.00
2018-05-13T03:19:06.348Z,8.00
2018-05-13T03:20:06.423Z,8.00
2018-05-13T03:21:06.436Z,8.00
2018-05-13T03:22:06.490Z,12.00
2018-05-13T03:23:06.533Z,12.00
2018-05-13T03:24:06.596Z,12.00
2018-05-13T03:25:06.662Z,16.00
2018-05-13T03:26:06.682Z,20.00
2018-05-13T03:27:06.733Z,20.00
2018-05-13T03:28:06.781Z,24.00
2018-05-13T03:29:06.832Z,28.00
2018-05-13T03:30:06.903Z,36.00
2018-05-13T03:31:06.930Z,40.00
2018-05-13T03:32:06.980Z,44.00
2018-05-13T03:33:07.245Z,56.00
2018-05-13T03:34:07.076Z,64.00
2018-05-13T03:35:07.132Z,72.00
2018-05-13T03:36:07.218Z,84.00
2018-05-13T03:37:07.225Z,92.00
2018-05-13T03:38:07.279Z,108.00
2018-05-13T03:39:07.327Z,124.00
2018-05-13T03:40:07.374Z,136.00
2018-05-13T03:41:07.448Z,156.00
2018-05-13T03:42:07.474Z,172.00
2018-05-13T03:43:07.522Z,188.00
2018-05-13T03:44:07.626Z,208.00
2018-05-13T03:45:07.625Z,232.00
2018-05-13T03:46:07.672Z,252.00
2018-05-13T03:47:07.720Z,272.00
2018-05-13T03:48:07.768Z,300.00
2018-05-13T03:49:07.850Z,320.00
2018-05-13T03:50:07.867Z,348.00
2018-05-13T03:51:07.920Z,372.00
2018-05-13T03:52:07.966Z,400.00
2018-05-13T03:53:08.022Z,432.00
2018-05-13T03:54:08.097Z,460.00
2018-05-13T03:55:08.115Z,496.00
2018-05-13T03:56:08.165Z,532.00
2018-05-13T03:57:08.211Z,568.00
2018-05-13T03:58:08.262Z,604.00
2018-05-13T03:59:08.353Z,644.00
2018-05-13T04:00:08.359Z,696.00
2018-05-13T04:01:08.410Z,748.00
2018-05-13T04:02:08.462Z,796.00
2018-05-13T04:03:08.507Z,848.00
2018-05-13T04:04:08.594Z,904.00
2018-05-13T04:05:08.606Z,952.00
2018-05-13T04:06:08.668Z,1008.00
2018-05-13T04:07:08.705Z,1060.00
2018-05-13T04:08:08.753Z,1116.00
2018-05-13T04:09:08.836Z,1176.00
2018-05-13T04:10:08.858Z,1244.00
2018-05-13T04:11:08.902Z,1312.00
2018-05-13T04:12:08.957Z,1384.00
2018-05-13T04:13:09.003Z,1468.00
2018-05-13T04:14:09.136Z,1552.00
2018-05-13T04:15:09.101Z,1628.00
2018-05-13T04:16:09.151Z,1708.00
2018-05-13T04:17:09.197Z,1800.00
2018-05-13T04:18:09.250Z,1888.00
2018-05-13T04:19:09.321Z,1988.00
2018-05-13T04:20:09.349Z,2092.00
2018-05-13T04:21:09.418Z,2192.00
2018-05-13T04:22:09.451Z,2276.00
2018-05-13T04:23:09.494Z,2348.00
2018-05-13T04:24:09.542Z,2412.00
2018-05-13T04:25:09.615Z,2472.00
2018-05-13T04:26:09.644Z,2540.00
2018-05-13T04:27:09.692Z,2604.00
2018-05-13T04:28:09.740Z,2672.00
2018-05-13T04:29:09.791Z,2740.00
2018-05-13T04:30:09.862Z,2800.00
2018-05-13T04:31:09.895Z,2860.00
2018-05-13T04:32:09.960Z,2928.00
2018-05-13T04:33:09.994Z,3004.00
2018-05-13T04:34:10.038Z,3080.00
2018-05-13T04:35:10.087Z,3164.00
2018-05-13T04:36:10.136Z,3264.00
2018-05-13T04:37:10.209Z,3364.00
2018-05-13T04:38:10.235Z,3428.00
2018-05-13T04:39:10.286Z,3440.00
2018-05-13T04:40:10.333Z,3396.00
2018-05-13T04:41:10.382Z,3388.00
2018-05-13T04:42:10.475Z,3408.00
2018-05-13T04:43:10.482Z,3492.00
2018-05-13T04:44:10.534Z,3620.00
2018-05-13T04:45:10.581Z,3744.00
2018-05-13T04:46:10.633Z,3836.00
2018-05-13T04:47:10.701Z,3880.00
2018-05-13T04:48:10.733Z,3888.00
2018-05-13T04:49:10.780Z,3852.00
2018-05-13T04:50:10.828Z,3860.00
2018-05-13T04:51:10.877Z,3912.00
2018-05-13T04:52:10.952Z,3984.00
2018-05-13T04:53:11.059Z,4048.00
2018-05-13T04:54:11.030Z,4140.00
2018-05-13T04:55:11.076Z,4316.00
2018-05-13T04:56:11.127Z,4536.00
2018-05-13T04:57:11.197Z,4736.00
2018-05-13T04:58:11.223Z,4924.00
2018-05-13T04:59:11.297Z,5044.00
2018-05-13T05:00:11.323Z,5092.00
2018-05-13T05:01:11.374Z,5092.00
2018-05-13T05:02:11.447Z,5076.00
2018-05-13T05:03:11.470Z,5088.00
2018-05-13T05:04:11.547Z,5144.00
2018-05-13T05:05:11.569Z,5212.00
2018-05-13T05:06:11.619Z,5292.00
2018-05-13T05:07:11.671Z,5392.00
2018-05-13T05:08:11.716Z,5480.00
2018-05-13T05:09:11.792Z,5520.00
2018-05-13T05:10:11.817Z,5532.00
2018-05-13T05:11:11.870Z,5572.00
2018-05-13T05:12:11.915Z,5620.00
2018-05-13T05:13:11.999Z,5696.00
2018-05-13T05:14:12.037Z,5800.00
2018-05-13T05:15:12.063Z,5936.00
2018-05-13T05:16:12.116Z,6044.00
2018-05-13T05:17:12.168Z,6104.00
2018-05-13T05:18:12.211Z,6140.00
2018-05-13T05:19:12.286Z,6192.00
2018-05-13T05:20:12.334Z,6244.00
2018-05-13T05:21:12.361Z,6272.00
2018-05-13T05:22:12.409Z,6272.00
2018-05-13T05:23:12.462Z,6228.00
2018-05-13T05:24:12.540Z,6180.00
2018-05-13T05:25:12.558Z,6204.00
2018-05-13T05:26:12.610Z,6320.00
2018-05-13T05:27:12.657Z,6432.00
2018-05-13T05:28:12.711Z,6504.00
2018-05-13T05:29:12.781Z,6528.00
2018-05-13T05:30:12.805Z,6588.00
2018-05-13T05:31:12.880Z,6632.00
2018-05-13T05:32:12.908Z,6592.00
2018-05-13T05:33:12.956Z,6620.00
2018-05-13T05:34:13.002Z,6792.00
2018-05-13T05:35:13.056Z,7012.00
2018-05-13T05:36:13.124Z,7152.00
2018-05-13T05:37:13.152Z,7284.00
2018-05-13T05:38:13.203Z,7464.00
2018-05-13T05:39:13.250Z,7668.00
2018-05-13T05:40:13.301Z,7896.00
2018-05-13T05:41:13.375Z,8132.00
2018-05-13T05:42:13.400Z,8352.00
2018-05-13T05:43:13.451Z,8532.00
2018-05-13T05:44:13.499Z,8668.00
2018-05-13T05:45:13.559Z,8788.00
2018-05-13T05:46:13.637Z,8900.00
2018-05-13T05:47:13.653Z,9020.00
2018-05-13T05:48:13.697Z,9140.00
2018-05-13T05:49:13.748Z,9244.00
2018-05-13T05:50:13.799Z,9380.00
2018-05-13T05:51:13.870Z,9524.00
2018-05-13T05:52:13.894Z,9652.00
2018-05-13T05:53:13.968Z,9780.00
2018-05-13T05:54:13.993Z,9932.00
2018-05-13T05:55:14.045Z,10108.00
2018-05-13T05:56:14.095Z,10220.00
2018-05-13T05:57:14.146Z,10232.00
2018-05-13T05:58:14.215Z,10160.00
2018-05-13T05:59:14.241Z,10092.00
2018-05-13T06:00:14.290Z,10104.00
2018-05-13T06:01:14.344Z,10212.00
2018-05-13T06:02:14.391Z,10428.00
2018-05-13T06:03:14.554Z,10680.00
2018-05-13T06:04:14.496Z,10972.00
2018-05-13T06:05:14.543Z,11288.00
2018-05-13T06:06:14.595Z,11596.00
2018-05-13T06:07:14.640Z,11884.00
2018-05-13T06:08:14.728Z,12132.00
2018-05-13T06:09:14.741Z,12292.00
2018-05-13T06:10:14.793Z,12408.00
2018-05-13T06:11:14.841Z,12596.00
2018-05-13T06:12:14.903Z,12900.00
2018-05-13T06:13:14.969Z,13336.00
2018-05-13T06:14:14.991Z,13844.00
2018-05-13T06:15:15.044Z,14384.00
2018-05-13T06:16:15.087Z,14844.00
2018-05-13T06:17:15.137Z,15040.00
2018-05-13T06:18:15.228Z,14872.00
2018-05-13T06:19:15.240Z,14600.00
2018-05-13T06:20:15.286Z,14464.00
2018-05-13T06:21:15.341Z,14408.00
2018-05-13T06:22:15.389Z,14304.00
2018-05-13T06:23:15.463Z,13700.00
2018-05-13T06:24:15.512Z,12808.00
2018-05-13T06:25:15.558Z,12016.00
2018-05-13T06:26:15.592Z,11596.00
2018-05-13T06:27:15.639Z,11472.00
2018-05-13T06:28:15.686Z,11704.00
2018-05-13T06:29:15.761Z,12288.00
2018-05-13T06:30:15.787Z,13096.00
2018-05-13T06:31:15.839Z,14164.00
2018-05-13T06:32:15.890Z,15404.00
2018-05-13T06:33:15.941Z,16460.00
2018-05-13T06:34:16.030Z,16940.00
2018-05-13T06:35:16.042Z,16860.00
2018-05-13T06:36:16.089Z,16764.00
2018-05-13T06:37:16.138Z,17136.00
2018-05-13T06:38:16.194Z,18144.00
2018-05-13T06:39:16.316Z,19392.00
2018-05-13T06:40:16.290Z,20768.00
2018-05-13T06:41:16.340Z,22240.00
2018-05-13T06:42:16.394Z,23520.00
2018-05-13T06:43:16.442Z,24064.00
2018-05-13T06:44:16.522Z,22912.00
2018-05-13T06:45:16.610Z,21728.00
2018-05-13T06:46:16.597Z,20864.00
2018-05-13T06:47:16.643Z,20192.00
2018-05-13T06:48:16.692Z,19648.00
2018-05-13T06:49:16.768Z,19072.00
2018-05-13T06:50:16.794Z,18464.00
2018-05-13T06:51:16.975Z,17920.00
2018-05-13T06:52:16.894Z,17504.00
2018-05-13T06:53:16.945Z,17244.00
2018-05-13T06:54:16.999Z,17504.00
2018-05-13T06:55:17.046Z,17792.00
2018-05-13T06:56:17.122Z,18048.00
2018-05-13T06:57:17.191Z,18176.00
2018-05-13T06:58:17.199Z,18176.00
2018-05-13T06:59:17.251Z,18272.00
2018-05-13T07:00:17.326Z,18816.00
2018-05-13T07:01:17.373Z,19968.00
2018-05-13T07:02:17.403Z,21536.00
2018-05-13T07:03:17.452Z,22880.00
2018-05-13T07:04:17.501Z,23200.00
2018-05-13T07:05:17.557Z,22560.00
2018-05-13T07:06:17.630Z,21728.00
2018-05-13T07:07:17.683Z,21216.00
2018-05-13T07:08:17.703Z,20928.00
2018-05-13T07:09:17.755Z,20800.00
2018-05-13T07:10:17.823Z,20800.00
2018-05-13T07:11:17.860Z,20832.00
2018-05-13T07:12:17.941Z,20864.00
2018-05-13T07:13:17.960Z,21056.00
2018-05-13T07:14:18.012Z,21472.00
2018-05-13T07:15:18.060Z,22112.00
2018-05-13T07:16:18.110Z,22816.00
2018-05-13T07:17:18.191Z,23456.00
2018-05-13T07:18:18.219Z,23904.00
2018-05-13T07:19:18.262Z,24192.00
2018-05-13T07:20:18.317Z,24352.00
2018-05-13T07:21:18.368Z,24384.00
2018-05-13T07:22:18.450Z,24096.00
2018-05-13T07:23:18.472Z,23616.00
2018-05-13T07:24:18.517Z,23328.00
2018-05-13T07:25:18.570Z,23680.00
2018-05-13T07:26:18.626Z,24960.00
2018-05-13T07:27:18.715Z,26784.00
2018-05-13T07:28:18.722Z,28608.00
2018-05-13T07:29:18.832Z,30144.00
2018-05-13T07:30:18.824Z,31360.00
2018-05-13T07:31:18.874Z,32096.00
2018-05-13T07:32:18.949Z,32192.00
2018-05-13T07:33:19.005Z,33408.00
2018-05-13T07:34:19.028Z,33600.00
2018-05-13T07:35:19.078Z,30016.00
2018-05-13T07:36:19.129Z,26592.00
2018-05-13T07:37:19.180Z,25888.00
2018-05-13T07:38:19.265Z,26144.00
2018-05-13T07:39:19.284Z,26368.00
2018-05-13T07:40:19.335Z,27008.00
2018-05-13T07:41:19.384Z,28128.00
2018-05-13T07:42:19.439Z,29408.00
2018-05-13T07:43:19.525Z,29824.00
2018-05-13T07:44:19.544Z,28992.00
2018-05-13T07:45:19.598Z,27520.00
2018-05-13T07:46:19.646Z,26368.00
2018-05-13T07:47:19.694Z,25760.00
2018-05-13T07:48:19.776Z,25824.00
2018-05-13T07:49:19.797Z,26880.00
2018-05-13T07:50:19.848Z,28512.00
2018-05-13T07:51:19.898Z,29728.00
2018-05-13T07:52:19.951Z,29760.00
2018-05-13T07:53:20.033Z,28704.00
2018-05-13T07:54:20.055Z,27232.00
2018-05-13T07:55:20.108Z,25664.00
2018-05-13T07:56:20.160Z,24544.00
2018-05-13T07:57:20.207Z,24096.00
2018-05-13T07:58:20.302Z,24096.00
2018-05-13T07:59:20.312Z,24160.00
2018-05-13T08:00:20.361Z,24160.00
2018-05-13T08:01:20.416Z,24096.00
2018-05-13T08:02:20.477Z,24000.00
2018-05-13T08:03:20.551Z,24000.00
2018-05-13T08:04:20.637Z,24128.00
2018-05-13T08:05:20.630Z,24544.00
2018-05-13T08:06:20.673Z,25472.00
2018-05-13T08:07:20.723Z,26720.00
2018-05-13T08:08:20.807Z,28096.00
2018-05-13T08:09:20.831Z,28992.00
2018-05-13T08:10:20.880Z,28864.00
2018-05-13T08:11:20.938Z,28096.00
2018-05-13T08:12:20.980Z,27328.00
2018-05-13T08:13:21.056Z,26976.00
2018-05-13T08:14:21.085Z,27200.00
2018-05-13T08:15:21.136Z,27744.00
2018-05-13T08:16:21.187Z,28544.00
2018-05-13T08:17:21.239Z,29696.00
2018-05-13T08:18:21.311Z,31136.00
2018-05-13T08:19:21.981Z,32512.00
2018-05-13T08:20:21.472Z,33536.00
2018-05-13T08:21:21.445Z,34336.00
2018-05-13T08:22:21.498Z,34624.00
2018-05-13T08:23:21.552Z,33792.00
2018-05-13T08:24:21.624Z,31744.00
2018-05-13T08:25:21.657Z,29504.00
2018-05-13T08:26:21.704Z,28480.00
2018-05-13T08:27:21.758Z,28256.00
2018-05-13T08:28:21.807Z,28064.00
2018-05-13T08:29:21.882Z,28832.00
2018-05-13T08:30:21.910Z,30240.00
2018-05-13T08:31:21.962Z,31616.00
2018-05-13T08:32:22.022Z,31808.00
2018-05-13T08:33:22.065Z,31232.00
2018-05-13T08:34:22.147Z,31808.00
2018-05-13T08:35:22.170Z,34368.00
2018-05-13T08:36:22.218Z,37440.00
2018-05-13T08:37:22.270Z,39648.00
2018-05-13T08:38:22.323Z,41536.00
2018-05-13T08:39:22.411Z,45856.00
2018-05-13T08:40:22.435Z,53440.00
2018-05-13T08:41:22.478Z,60320.00
2018-05-13T08:42:22.532Z,61440.00
2018-05-13T08:43:22.584Z,61504.00
2018-05-13T08:44:22.672Z,62272.00
2018-05-13T08:45:22.690Z,55712.00
2018-05-13T08:46:22.741Z,54656.00
2018-05-13T08:47:22.791Z,51648.00
2018-05-13T08:48:22.911Z,49056.00
2018-05-13T08:49:22.928Z,48320.00
2018-05-13T08:50:22.958Z,47328.00
2018-05-13T08:51:23.001Z,46688.00
2018-05-13T08:52:23.055Z,46208.00
2018-05-13T08:53:23.110Z,47104.00
2018-05-13T08:54:23.197Z,50016.00
2018-05-13T08:55:23.214Z,53952.00
2018-05-13T08:56:23.269Z,55840.00
2018-05-13T08:57:23.319Z,54336.00
2018-05-13T08:58:23.373Z,52320.00
2018-05-13T08:59:23.469Z,52576.00
2018-05-13T09:00:23.479Z,54752.00
2018-05-13T09:01:23.531Z,58240.00
2018-05-13T09:02:23.582Z,68256.00
2018-05-13T09:03:23.638Z,72992.00
2018-05-13T09:04:23.717Z,78336.00
2018-05-13T09:05:23.768Z,63008.00
2018-05-13T09:06:23.795Z,83200.00
2018-05-13T09:07:23.874Z,74240.00
2018-05-13T09:08:23.917Z,58880.00
2018-05-13T09:09:23.984Z,51872.00
2018-05-13T09:10:24.009Z,50784.00
2018-05-13T09:11:24.063Z,49792.00
2018-05-13T09:12:24.140Z,48896.00
2018-05-13T09:13:24.169Z,49536.00
2018-05-13T09:14:24.258Z,53568.00
2018-05-13T09:15:24.303Z,54912.00
2018-05-13T09:16:24.333Z,55328.00
2018-05-13T09:17:24.382Z,54912.00
2018-05-13T09:18:24.460Z,53792.00
2018-05-13T09:19:24.496Z,54080.00
2018-05-13T09:20:24.549Z,58752.00
2018-05-13T09:21:24.597Z,57856.00
2018-05-13T09:22:24.650Z,60960.00
2018-05-13T09:23:24.731Z,56864.00
2018-05-13T09:24:24.762Z,53600.00
2018-05-13T09:25:24.812Z,47424.00
2018-05-13T09:26:24.878Z,46592.00
2018-05-13T09:27:24.927Z,43680.00
2018-05-13T09:28:24.999Z,41920.00
2018-05-13T09:29:25.025Z,42528.00
2018-05-13T09:30:25.079Z,41792.00
2018-05-13T09:31:25.132Z,41440.00
2018-05-13T09:32:25.185Z,40160.00
2018-05-13T09:33:25.291Z,38336.00
2018-05-13T09:34:25.294Z,35520.00
2018-05-13T09:35:25.348Z,33824.00
2018-05-13T09:36:25.397Z,32384.00
2018-05-13T09:37:25.448Z,31200.00
2018-05-13T09:38:25.527Z,30016.00
2018-05-13T09:39:25.605Z,28864.00
2018-05-13T09:40:25.615Z,27936.00
2018-05-13T09:41:25.662Z,27392.00
2018-05-13T09:42:25.716Z,27168.00
2018-05-13T09:43:25.795Z,27136.00
2018-05-13T09:44:25.845Z,27168.00
2018-05-13T09:45:25.876Z,27360.00
2018-05-13T09:46:25.927Z,27520.00
2018-05-13T09:47:25.977Z,27872.00
2018-05-13T09:48:26.052Z,28192.00
2018-05-13T09:49:26.089Z,28640.00
2018-05-13T09:50:26.137Z,29024.00
2018-05-13T09:51:26.194Z,29408.00
2018-05-13T09:52:26.242Z,29728.00
2018-05-13T09:53:26.336Z,29952.00
2018-05-13T09:54:26.348Z,30336.00
2018-05-13T09:55:26.399Z,30784.00
2018-05-13T09:56:26.452Z,31296.00
2018-05-13T09:57:26.506Z,31840.00
2018-05-13T09:58:26.587Z,32640.00
2018-05-13T09:59:26.610Z,33472.00
2018-05-13T10:00:26.684Z,34240.00
2018-05-13T10:01:26.713Z,34976.00
2018-05-13T10:02:26.767Z,35680.00
2018-05-13T10:03:26.822Z,36384.00
2018-05-13T10:04:26.917Z,37152.00
2018-05-13T10:05:26.923Z,37984.00
2018-05-13T10:06:26.977Z,39008.00
2018-05-13T10:07:27.028Z,40192.00
2018-05-13T10:08:27.081Z,42720.00
2018-05-13T10:09:27.176Z,42912.00
2018-05-13T10:10:27.189Z,45024.00
2018-05-13T10:11:27.239Z,45504.00
2018-05-13T10:12:27.291Z,48704.00
2018-05-13T10:13:27.346Z,52384.00
2018-05-13T10:14:27.423Z,54464.00
2018-05-13T10:15:27.453Z,61888.00
2018-05-13T10:16:27.527Z,56992.00
2018-05-13T10:17:27.559Z,65088.00
2018-05-13T10:18:27.610Z,67936.00
2018-05-13T10:19:27.701Z,116160.00
2018-05-13T10:20:27.742Z,66976.00
2018-05-13T10:21:27.773Z,57920.00
2018-05-13T10:22:27.826Z,66272.00
2018-05-13T10:23:27.883Z,59744.00
2018-05-13T10:24:27.932Z,55680.00
2018-05-13T10:25:28.014Z,57088.00
2018-05-13T10:26:28.041Z,60128.00
2018-05-13T10:27:28.091Z,51840.00
2018-05-13T10:28:28.152Z,51584.00
2018-05-13T10:29:28.202Z,53376.00
2018-05-13T10:30:28.278Z,53792.00
2018-05-13T10:31:28.310Z,69216.00
2018-05-13T10:32:28.363Z,57024.00
2018-05-13T10:33:28.449Z,54016.00
2018-05-13T10:34:28.469Z,52512.00
2018-05-13T10:35:28.527Z,60768.00
2018-05-13T10:36:28.622Z,110272.00
2018-05-13T10:37:28.633Z,144384.00
2018-05-13T10:38:28.708Z,79328.00
2018-05-13T10:39:28.738Z,67904.00
2018-05-13T10:40:28.796Z,83360.00
2018-05-13T10:41:28.846Z,51040.00
2018-05-13T10:42:28.989Z,48384.00
2018-05-13T10:43:28.985Z,46688.00
2018-05-13T10:44:29.010Z,46464.00
2018-05-13T10:45:29.068Z,48928.00
2018-05-13T10:46:29.117Z,65248.00
2018-05-13T10:47:29.199Z,66112.00
2018-05-13T10:48:29.222Z,66688.00
2018-05-13T10:49:29.285Z,86784.00
2018-05-13T10:50:29.328Z,64384.00
2018-05-13T10:51:29.385Z,79712.00
2018-05-13T10:52:29.473Z,125760.00
2018-05-13T10:53:29.486Z,121216.00
2018-05-13T10:54:30.340Z,121280.00
2018-05-13T10:55:29.603Z,112736.00
2018-05-13T10:56:29.647Z,109472.00
2018-05-13T10:57:29.736Z,109088.00
2018-05-13T10:58:29.755Z,112448.00
2018-05-13T10:59:29.837Z,121120.00
2018-05-13T11:00:29.862Z,132064.00
2018-05-13T11:01:29.917Z,125760.00
2018-05-13T11:02:29.972Z,130528.00
2018-05-13T11:03:30.056Z,79680.00
2018-05-13T11:04:30.082Z,166944.00
2018-05-13T11:05:30.139Z,126816.00
2018-05-13T11:06:30.198Z,101664.00
2018-05-13T11:07:30.254Z,133472.00
2018-05-13T11:08:30.325Z,152192.00
2018-05-13T11:09:30.357Z,142848.00
2018-05-13T11:10:30.455Z,134816.00
2018-05-13T11:11:30.468Z,128224.00
2018-05-13T11:12:30.531Z,127360.00
2018-05-13T11:13:30.582Z,105984.00
2018-05-13T11:14:30.637Z,79840.00
2018-05-13T11:15:30.722Z,75744.00
2018-05-13T11:16:30.748Z,110048.00
2018-05-13T11:17:30.804Z,61408.00
2018-05-13T11:18:30.856Z,98848.00
2018-05-13T11:19:30.915Z,77568.00
2018-05-13T11:20:31.049Z,107648.00
2018-05-13T11:21:31.026Z,108736.00
2018-05-13T11:22:31.085Z,109248.00
2018-05-13T11:23:31.141Z,121728.00
2018-05-13T11:24:31.225Z,123648.00
2018-05-13T11:25:31.253Z,117760.00
2018-05-13T11:26:31.334Z,120192.00
2018-05-13T11:27:31.365Z,58880.00
2018-05-13T11:28:31.421Z,56352.00
2018-05-13T11:29:31.478Z,56768.00
2018-05-13T11:30:31.544Z,63040.00
2018-05-13T11:31:31.612Z,55040.00
2018-05-13T11:32:31.644Z,59264.00
2018-05-13T11:33:31.704Z,53504.00
2018-05-13T11:34:31.753Z,52032.00
2018-05-13T11:35:31.838Z,51648.00
2018-05-13T11:36:31.887Z,51584.00
2018-05-13T11:37:31.922Z,51168.00
2018-05-13T11:38:31.974Z,50784.00
2018-05-13T11:39:32.046Z,52352.00
2018-05-13T11:40:32.109Z,64096.00
2018-05-13T11:41:32.161Z,74048.00
2018-05-13T11:42:32.195Z,55776.00
2018-05-13T11:43:32.245Z,55616.00
2018-05-13T11:44:32.300Z,62848.00
2018-05-13T11:45:32.383Z,69728.00
2018-05-13T11:46:32.407Z,121632.00
2018-05-13T11:47:32.460Z,124640.00
2018-05-13T11:48:32.515Z,134912.00
2018-05-13T11:49:32.569Z,141344.00
2018-05-13T11:50:32.667Z,142944.00
2018-05-13T11:51:32.677Z,108384.00
2018-05-13T11:52:32.773Z,105824.00
2018-05-13T11:53:32.787Z,102112.00
2018-05-13T11:54:32.848Z,46528.00
2018-05-13T11:55:32.894Z,48224.00
2018-05-13T11:56:32.955Z,47232.00
2018-05-13T11:57:33.028Z,44960.00
2018-05-13T11:58:33.060Z,40384.00
2018-05-13T11:59:33.112Z,38816.00
2018-05-13T12:00:33.166Z,37440.00
2018-05-13T12:01:33.223Z,36384.00
2018-05-13T12:02:33.333Z,35296.00
2018-05-13T12:03:33.353Z,34560.00
2018-05-13T12:04:33.380Z,34048.00
2018-05-13T12:05:33.442Z,33504.00
2018-05-13T12:06:33.494Z,33344.00
2018-05-13T12:07:33.572Z,33632.00
2018-05-13T12:08:33.597Z,34208.00
2018-05-13T12:09:33.674Z,35648.00
2018-05-13T12:10:33.702Z,37856.00
2018-05-13T12:11:33.757Z,42112.00
2018-05-13T12:12:33.808Z,49952.00
2018-05-13T12:13:33.866Z,50048.00
2018-05-13T12:14:33.945Z,58016.00